Hlavní strana
METAR-TAF:

METAR-TAF

Letiště :

Danville, Virginie, Spojené státy americké

zeměpisná šířka: 36-34-22N, zeměpisná délka: 079-20-10W, výška: 174 m

Aktuální stav počasí

Zpráva byla vytvořena před 35 minutami, v 09:53 UTC
Západní vítr 3 kt
Teplota 17°C
Vlhkost vzduchu 39%
Tlak 1016 hPa
Viditelnost: 16.1 km
Jasno

METAR: KDAN 300953Z AUTO 27003KT 10SM CLR 17/03 A3001 RMK AO2 SLP151 T01720028

Čas: 06:28 (10:28 UTC)

Předpověď počasí

Zpráva byla vytvořena před 4 hodinami a 52 minutami, v 05:36 UTC
Předpověď platná od 30 v 06 UTC do 31 v 06 UTC
Západní vítr 6 kt
Viditelnost: 10 km
Jasno
Od 30 v 1400 UTC
Západní vítr 10 kt s nárazy do 20 kt
Viditelnost: 10 km
Jasno
Od 30 v 1700 UTC
Západní vítr 17 kt s nárazy do 27 kt
Viditelnost: 10 km
Jasno
Od 30 v 2300 UTC
Západoseverozápadní vítr 8 kt
Viditelnost: 10 km
Jasno

TAF: KDAN 300536Z 3006/3106 27006KT P6SM SKC FM301400 26010G20KT P6SM SKC FM301700 26017G27KT P6SM SKC FM302300 29008KT P6SM SKC

Stav a předpovědi počasí z více než 4 000 letišť (zprávy METAR a TAF).

Červené a žluté tečky na mapě představují dostupné meteorologické stanice.

Když kurzor umístíte na tečku, zobrazí se název stanice.

Pak kliknutím zobrazíte stav a předpověď počasí.

Chcete-li změnit mapu, kliknutím na zelené tlačítko se znaménkem +mapu přiblížíte, kliknutím na zelené tlačítko se znaménkem – mapu oddálíte a kliknutím na zelené šipky přejdete na sousední mapy.


METAR-TAF: